createdAt,value
2022-10-17T00:02:14.435Z,101111.84
2022-10-17T00:04:41.113Z,101118.47
2022-10-17T00:07:07.812Z,101120.84
2022-10-17T00:09:34.501Z,101122.84
2022-10-17T00:12:02.825Z,101116.94
2022-10-17T00:14:29.524Z,101120.28
2022-10-17T00:16:56.157Z,101118.63
2022-10-17T00:19:22.846Z,101121.66
2022-10-17T00:21:49.592Z,101126.88
2022-10-17T00:24:16.369Z,101119.66
2022-10-17T00:26:43.078Z,101124.72
2022-10-17T00:29:09.825Z,101128.84
2022-10-17T00:31:36.569Z,101106.59
2022-10-17T00:34:03.369Z,101120.56
2022-10-17T00:36:30.169Z,101128.75
2022-10-17T00:38:58.718Z,101119.13
2022-10-17T00:41:29.341Z,101120.22
2022-10-17T00:44:05.780Z,101127.09
2022-10-17T00:46:37.700Z,101131.28
2022-10-17T00:49:10.266Z,101123.19
2022-10-17T00:51:52.217Z,101117.88
2022-10-17T00:54:22.687Z,101119.03
2022-10-17T00:56:49.782Z,101127.84
2022-10-17T00:59:17.674Z,101119.47
2022-10-17T01:01:51.251Z,101121.94
2022-10-17T01:04:18.470Z,101118.94
2022-10-17T01:06:45.532Z,101121.69
2022-10-17T01:09:12.359Z,101114.34
2022-10-17T01:11:46.872Z,101112.38
2022-10-17T01:14:20.841Z,101119.09
2022-10-17T01:17:06.205Z,101113.97
2022-10-17T01:19:43.902Z,101127.50
2022-10-17T01:22:34.449Z,101130.69
2022-10-17T01:25:24.484Z,101123.00
2022-10-17T01:28:23.325Z,101121.34
2022-10-17T01:30:57.249Z,101126.88
2022-10-17T01:33:37.587Z,101130.50
2022-10-17T01:36:22.667Z,101124.31
2022-10-17T01:38:53.778Z,101126.44
2022-10-17T01:41:42.256Z,101123.13
2022-10-17T01:44:12.950Z,101121.00
2022-10-17T01:46:43.426Z,101122.44
2022-10-17T01:49:11.420Z,101120.56
2022-10-17T01:51:49.827Z,101118.22
2022-10-17T01:54:22.488Z,101118.59
2022-10-17T01:56:52.912Z,101116.94
2022-10-17T01:59:42.350Z,101124.06
2022-10-17T02:02:10.511Z,101129.63
2022-10-17T02:04:37.624Z,101111.78
2022-10-17T02:07:12.450Z,101117.97
2022-10-17T02:09:39.621Z,101116.44
2022-10-17T02:12:24.997Z,101109.13
2022-10-17T02:15:19.976Z,101106.66
2022-10-17T02:17:46.771Z,101105.06
2022-10-17T02:20:19.515Z,101113.09
2022-10-17T02:22:55.973Z,101101.78
2022-10-17T02:25:42.232Z,101112.22
2022-10-17T02:28:17.932Z,101110.97
2022-10-17T02:31:01.309Z,101114.69
2022-10-17T02:33:36.110Z,101113.28
2022-10-17T02:36:11.145Z,101117.97
2022-10-17T02:38:39.092Z,101119.72
2022-10-17T02:41:10.344Z,101129.19
2022-10-17T02:43:38.022Z,101116.97
2022-10-17T02:46:06.058Z,101130.84
2022-10-17T02:48:40.479Z,101121.81
2022-10-17T02:51:16.536Z,101120.66
2022-10-17T02:53:55.555Z,101126.16
2022-10-17T02:56:22.726Z,101124.56
2022-10-17T02:58:53.942Z,101119.91
2022-10-17T03:01:20.819Z,101118.16
2022-10-17T03:03:47.632Z,101126.63
2022-10-17T03:06:14.614Z,101139.63
2022-10-17T03:08:41.396Z,101131.13
2022-10-17T03:11:08.191Z,101130.41
2022-10-17T03:13:37.550Z,101121.59
2022-10-17T03:16:06.644Z,101126.28
2022-10-17T03:18:33.522Z,101121.16
2022-10-17T03:21:02.315Z,101120.34
2022-10-17T03:23:29.061Z,101127.94
2022-10-17T03:25:55.703Z,101132.16
2022-10-17T03:28:22.795Z,101123.69
2022-10-17T03:30:49.543Z,101115.72
2022-10-17T03:33:16.297Z,101121.75
2022-10-17T03:35:43.050Z,101121.56
2022-10-17T03:38:10.413Z,101113.78
2022-10-17T03:40:37.527Z,101120.78
2022-10-17T03:43:04.789Z,101125.03
2022-10-17T03:45:32.951Z,101126.44
2022-10-17T03:48:00.129Z,101124.84
2022-10-17T03:50:26.949Z,101121.66
2022-10-17T03:52:53.808Z,101123.16
2022-10-17T03:55:20.568Z,101119.38
2022-10-17T03:57:47.362Z,101122.66
2022-10-17T04:00:15.907Z,101130.69
2022-10-17T04:02:42.618Z,101122.91
2022-10-17T04:05:15.425Z,101132.00
2022-10-17T04:07:42.172Z,101129.38
2022-10-17T04:10:11.001Z,101134.22
2022-10-17T04:12:38.469Z,101132.72
2022-10-17T04:15:06.561Z,101141.63
2022-10-17T04:17:37.306Z,101134.81
2022-10-17T04:20:06.990Z,101147.56
2022-10-17T04:22:34.543Z,101153.84
2022-10-17T04:25:01.576Z,101159.47
2022-10-17T04:27:34.086Z,101160.88
2022-10-17T04:30:01.071Z,101164.53
2022-10-17T04:32:29.177Z,101159.84
2022-10-17T04:35:19.911Z,101161.97
2022-10-17T04:37:51.818Z,101168.75
2022-10-17T04:40:20.933Z,101174.88
2022-10-17T04:42:48.250Z,101173.63
2022-10-17T04:45:19.454Z,101171.25
2022-10-17T04:47:48.091Z,101169.09
2022-10-17T04:50:14.958Z,101164.97
2022-10-17T04:52:41.755Z,101172.03
2022-10-17T04:55:09.139Z,101177.00
2022-10-17T04:57:36.143Z,101162.81
2022-10-17T05:03:04.061Z,101171.94
2022-10-17T05:05:31.172Z,101191.13
2022-10-17T05:07:57.950Z,101191.75
2022-10-17T05:10:28.774Z,101193.97
2022-10-17T05:12:55.654Z,101190.13
2022-10-17T05:15:25.920Z,101194.84
2022-10-17T05:17:56.201Z,101192.81
2022-10-17T05:20:24.472Z,101200.53
2022-10-17T05:22:51.383Z,101185.00
2022-10-17T05:25:18.493Z,101201.75
2022-10-17T05:27:45.177Z,101199.44
2022-10-17T05:30:12.172Z,101193.88
2022-10-17T05:32:40.705Z,101192.41
2022-10-17T05:35:08.300Z,101193.09
2022-10-17T05:37:36.607Z,101190.44
2022-10-17T05:40:04.810Z,101200.69
2022-10-17T05:42:32.336Z,101207.25
2022-10-17T05:44:59.601Z,101205.78
2022-10-17T05:47:26.936Z,101215.63
2022-10-17T05:49:53.831Z,101211.50
2022-10-17T05:52:26.964Z,101218.81
2022-10-17T05:55:03.570Z,101213.75
2022-10-17T05:57:31.472Z,101212.44
2022-10-17T05:59:58.583Z,101208.53
2022-10-17T06:02:25.480Z,101206.06
2022-10-17T06:04:52.242Z,101212.44
2022-10-17T06:07:21.054Z,101220.41
2022-10-17T06:09:48.556Z,101213.31
2022-10-17T06:12:15.330Z,101216.16
2022-10-17T06:14:43.054Z,101216.94
2022-10-17T06:17:15.788Z,101225.34
2022-10-17T06:19:44.910Z,101215.72
2022-10-17T06:22:13.689Z,101217.50
2022-10-17T06:24:42.410Z,101222.19
2022-10-17T06:27:12.086Z,101201.75
2022-10-17T06:29:40.790Z,101210.41
2022-10-17T06:32:09.974Z,101216.00
2022-10-17T06:34:40.853Z,101235.72
2022-10-17T06:37:07.617Z,101242.88
2022-10-17T06:39:36.175Z,101254.28
2022-10-17T06:42:07.111Z,101254.28
2022-10-17T06:45:06.773Z,101264.19
2022-10-17T06:47:42.512Z,101277.59
2022-10-17T06:50:26.651Z,101281.69
2022-10-17T06:53:19.690Z,101291.50
2022-10-17T06:55:54.019Z,101304.84
2022-10-17T06:58:30.391Z,101311.91
2022-10-17T07:01:13.097Z,101322.03
2022-10-17T07:03:41.103Z,101328.78
2022-10-17T07:06:08.376Z,101329.22
2022-10-17T07:08:35.374Z,101327.09
2022-10-17T07:11:14.956Z,101326.44
2022-10-17T07:13:43.134Z,101333.28
2022-10-17T07:16:10.838Z,101333.72
2022-10-17T07:18:40.292Z,101367.22
2022-10-17T07:21:08.795Z,101352.34
2022-10-17T07:23:37.546Z,101369.94
2022-10-17T07:26:07.588Z,101368.97
2022-10-17T07:28:40.508Z,101390.34
2022-10-17T07:31:24.774Z,101399.38
2022-10-17T07:33:51.681Z,101386.91
2022-10-17T07:36:18.675Z,101395.34
2022-10-17T07:38:46.653Z,101405.47
2022-10-17T07:41:17.790Z,101407.91
2022-10-17T07:43:53.331Z,101421.38
2022-10-17T07:46:24.561Z,101418.63
2022-10-17T07:48:55.675Z,101432.72
2022-10-17T07:51:22.659Z,101444.66
2022-10-17T07:53:49.602Z,101451.56
2022-10-17T07:56:19.877Z,101451.84
2022-10-17T07:58:53.051Z,101460.94
2022-10-17T08:01:23.601Z,101453.78
2022-10-17T08:04:06.936Z,101461.94
2022-10-17T08:06:39.097Z,101461.75
2022-10-17T08:09:11.099Z,101454.69
2022-10-17T08:11:43.925Z,101467.41
2022-10-17T08:14:11.884Z,101460.66
2022-10-17T08:16:39.165Z,101458.97
2022-10-17T08:21:40.889Z,101464.91
2022-10-17T08:24:09.729Z,101469.72
2022-10-17T08:26:40.638Z,101470.97
2022-10-17T08:29:15.277Z,101482.09
2022-10-17T08:32:01.198Z,101535.50
2022-10-17T08:34:29.275Z,101513.59
2022-10-17T08:41:53.056Z,101477.50
2022-10-17T08:44:51.751Z,101470.16
2022-10-17T08:47:43.354Z,101444.13
2022-10-17T08:50:38.631Z,101455.41
2022-10-17T08:56:48.080Z,101465.38
2022-10-17T08:59:29.615Z,101451.81
2022-10-17T09:02:20.912Z,101461.13
2022-10-17T09:05:26.700Z,101454.47
2022-10-17T09:07:56.839Z,101445.28
2022-10-17T09:10:39.027Z,101446.03
2022-10-17T09:13:43.425Z,101443.97
2022-10-17T09:16:48.885Z,101419.03
2022-10-17T09:19:21.307Z,101425.88
2022-10-17T09:22:10.046Z,101425.91
2022-10-17T09:24:44.728Z,101443.03
2022-10-17T09:27:24.353Z,101449.53
2022-10-17T09:29:55.756Z,101453.63
2022-10-17T09:32:24.606Z,101461.03
2022-10-17T09:34:53.643Z,101458.72
2022-10-17T09:37:24.535Z,101459.00
2022-10-17T09:39:54.518Z,101461.13
2022-10-17T09:42:25.361Z,101480.78
2022-10-17T09:45:19.653Z,101495.41
2022-10-17T09:47:52.151Z,101479.47
2022-10-17T09:50:33.292Z,101487.53
2022-10-17T09:53:33.144Z,101496.72
2022-10-17T09:56:03.634Z,101501.16
2022-10-17T09:58:48.517Z,101517.91
2022-10-17T10:01:29.178Z,101527.91
2022-10-17T10:04:08.751Z,101529.84
2022-10-17T10:06:37.794Z,101526.94
2022-10-17T10:09:07.363Z,101534.19
2022-10-17T10:11:52.444Z,101541.81
2022-10-17T10:14:35.837Z,101548.91
2022-10-17T10:17:05.768Z,101546.31
2022-10-17T10:19:37.638Z,101558.78
2022-10-17T10:22:09.284Z,101556.78
2022-10-17T10:24:36.367Z,101575.75
2022-10-17T10:27:04.028Z,101568.22
2022-10-17T10:32:33.974Z,101576.00
2022-10-17T10:35:23.654Z,101587.81
2022-10-17T10:37:53.885Z,101574.78
2022-10-17T10:40:37.802Z,101577.69
2022-10-17T10:43:06.528Z,101580.94
2022-10-17T10:45:47.650Z,101585.66
2022-10-17T10:48:28.232Z,101594.47
2022-10-17T10:51:41.811Z,101584.97
2022-10-17T10:54:28.784Z,101609.00
2022-10-17T10:57:01.146Z,101613.59
2022-10-17T10:59:41.525Z,101618.94
2022-10-17T11:02:23.730Z,101613.81
2022-10-17T11:04:57.533Z,101623.38
2022-10-17T11:07:30.660Z,101626.94
2022-10-17T11:10:14.477Z,101625.16
2022-10-17T11:12:57.539Z,101613.50
2022-10-17T11:15:28.876Z,101622.50
2022-10-17T11:18:00.783Z,101630.91
2022-10-17T11:20:34.775Z,101627.59
2022-10-17T11:23:34.529Z,101627.34
2022-10-17T11:26:05.669Z,101638.19
2022-10-17T11:28:32.805Z,101631.78
2022-10-17T11:31:17.959Z,101627.69
2022-10-17T11:33:58.163Z,101627.81
2022-10-17T11:36:34.050Z,101634.28
2022-10-17T11:39:14.922Z,101643.78
2022-10-17T11:41:43.347Z,101642.84
2022-10-17T11:44:22.229Z,101654.00
2022-10-17T11:46:55.868Z,101657.50
2022-10-17T11:52:54.885Z,101653.97
2022-10-17T11:55:22.533Z,101663.31
2022-10-17T11:58:12.832Z,101662.25
2022-10-17T12:00:57.781Z,101667.25
2022-10-17T12:03:55.310Z,101675.31
2022-10-17T12:06:49.669Z,101677.97
2022-10-17T12:09:43.297Z,101691.22
2022-10-17T12:12:10.176Z,101685.63
2022-10-17T12:14:45.838Z,101692.72
2022-10-17T12:17:38.967Z,101703.81
2022-10-17T12:20:23.992Z,101707.38
2022-10-17T12:22:52.317Z,101716.69
2022-10-17T12:25:32.083Z,101709.94
2022-10-17T12:28:13.253Z,101709.22
2022-10-17T12:31:33.618Z,101707.16
2022-10-17T12:34:16.403Z,101716.16
2022-10-17T12:36:43.632Z,101720.06
2022-10-17T12:39:14.522Z,101713.84
2022-10-17T12:41:41.403Z,101720.03
2022-10-17T12:44:14.416Z,101726.59
2022-10-17T12:46:49.378Z,101737.44
2022-10-17T12:49:41.052Z,101745.78
2022-10-17T12:52:19.679Z,101750.13
2022-10-17T12:55:07.168Z,101756.16
2022-10-17T12:57:56.675Z,101749.75
2022-10-17T13:00:37.998Z,101752.06
2022-10-17T13:03:13.507Z,101758.75
2022-10-17T13:05:44.518Z,101763.81
2022-10-17T13:08:18.904Z,101757.44
2022-10-17T13:10:49.102Z,101753.25
2022-10-17T13:13:48.877Z,101758.72
2022-10-17T13:16:33.357Z,101769.31
2022-10-17T13:19:01.810Z,101772.06
2022-10-17T13:21:28.950Z,101778.25
2022-10-17T13:23:56.021Z,101787.06
2022-10-17T13:26:28.771Z,101789.47
2022-10-17T13:29:07.171Z,101792.91
2022-10-17T13:31:44.703Z,101797.53
2022-10-17T13:34:23.449Z,101802.16
2022-10-17T13:37:02.661Z,101795.75
2022-10-17T13:39:52.404Z,101800.47
2022-10-17T13:42:29.938Z,101802.47
2022-10-17T13:44:58.087Z,101811.44
2022-10-17T13:47:27.923Z,101812.72
2022-10-17T13:49:55.769Z,101820.53
2022-10-17T13:52:26.266Z,101805.97
2022-10-17T13:54:53.927Z,101807.59
2022-10-17T13:57:29.400Z,101809.50
2022-10-17T14:00:01.635Z,101810.38
2022-10-17T14:02:30.405Z,101809.84
2022-10-17T14:05:19.956Z,101822.78
2022-10-17T14:08:22.712Z,101815.28
2022-10-17T14:10:51.423Z,101807.44
2022-10-17T14:13:26.915Z,101816.63
2022-10-17T14:16:10.357Z,101807.13
2022-10-17T14:18:37.805Z,101804.97
2022-10-17T14:24:13.127Z,101809.75
2022-10-17T14:26:58.976Z,101818.06
2022-10-17T14:29:31.704Z,101831.31
2022-10-17T14:32:08.635Z,101829.72
2022-10-17T14:34:40.883Z,101826.19
2022-10-17T14:37:32.586Z,101841.84
2022-10-17T14:40:00.834Z,101844.66
2022-10-17T14:42:27.604Z,101851.72
2022-10-17T14:44:56.706Z,101850.44
2022-10-17T14:47:42.830Z,101859.81
2022-10-17T14:50:13.365Z,101865.19
2022-10-17T14:52:40.911Z,101869.47
2022-10-17T14:55:23.338Z,101866.94
2022-10-17T14:57:50.499Z,101872.00
2022-10-17T15:00:19.355Z,101872.44
2022-10-17T15:02:48.184Z,101875.81
2022-10-17T15:05:15.672Z,101885.03
2022-10-17T15:07:44.465Z,101887.00
2022-10-17T15:10:36.021Z,101888.59
2022-10-17T15:13:27.276Z,101892.13
2022-10-17T15:15:52.234Z,101899.94
2022-10-17T15:18:19.505Z,101905.53
2022-10-17T15:20:46.244Z,101911.19
2022-10-17T15:23:12.952Z,101911.66
2022-10-17T15:25:43.923Z,101919.25
2022-10-17T15:28:15.072Z,101919.63
2022-10-17T15:30:42.164Z,101929.41
2022-10-17T15:33:08.825Z,101913.81
2022-10-17T15:35:36.748Z,101920.19
2022-10-17T15:38:05.674Z,101916.00
2022-10-17T15:40:32.421Z,101916.38
2022-10-17T15:42:59.483Z,101921.16
2022-10-17T15:45:26.241Z,101915.66
2022-10-17T15:47:59.295Z,101917.25
2022-10-17T15:50:30.582Z,101905.16
2022-10-17T15:53:00.450Z,101906.84
2022-10-17T15:55:28.450Z,101910.28
2022-10-17T15:57:55.523Z,101888.00
2022-10-17T16:00:24.173Z,101903.22
2022-10-17T16:02:51.553Z,101896.53
2022-10-17T16:05:29.259Z,101897.78
2022-10-17T16:07:57.881Z,101899.84
2022-10-17T16:10:28.196Z,101908.34
2022-10-17T16:12:55.249Z,101912.69
2022-10-17T16:15:24.799Z,101912.69
2022-10-17T16:17:57.896Z,101917.50
2022-10-17T16:20:26.397Z,101924.16
2022-10-17T16:22:59.534Z,101924.41
2022-10-17T16:25:29.566Z,101932.56
2022-10-17T16:27:59.690Z,101938.53
2022-10-17T16:30:30.412Z,101945.06
2022-10-17T16:32:57.244Z,101945.41
2022-10-17T16:35:30.640Z,101945.06
2022-10-17T16:38:00.365Z,101947.38
2022-10-17T16:40:27.341Z,101953.22
2022-10-17T16:42:54.219Z,101949.69
2022-10-17T16:45:22.389Z,101958.72
2022-10-17T16:47:49.731Z,101957.97
2022-10-17T16:50:16.516Z,101953.94
2022-10-17T16:52:43.769Z,101950.72
2022-10-17T16:55:10.901Z,101952.25
2022-10-17T16:57:38.081Z,101958.22
2022-10-17T17:00:07.274Z,101958.97
2022-10-17T17:02:38.321Z,101954.97
2022-10-17T17:05:05.624Z,101966.28
2022-10-17T17:07:33.661Z,101962.69
2022-10-17T17:10:00.537Z,101962.25
2022-10-17T17:12:27.431Z,101962.88
2022-10-17T17:14:54.271Z,101965.31
2022-10-17T17:17:30.674Z,101963.22
2022-10-17T17:20:08.256Z,101967.16
2022-10-17T17:22:35.222Z,101973.00
2022-10-17T17:25:02.036Z,101979.41
2022-10-17T17:27:29.570Z,101981.91
2022-10-17T17:29:56.723Z,101982.16
2022-10-17T17:32:23.881Z,101990.41
2022-10-17T17:34:52.127Z,101992.38
2022-10-17T17:37:19.263Z,102000.41
2022-10-17T17:39:46.043Z,101996.41
2022-10-17T17:42:12.840Z,102008.69
2022-10-17T17:50:07.277Z,102001.66
2022-10-17T17:52:49.368Z,101994.03
2022-10-17T17:55:17.257Z,101999.66
2022-10-17T17:57:43.946Z,101995.53
2022-10-17T18:00:11.507Z,102005.66
2022-10-17T18:02:42.174Z,101996.81
2022-10-17T18:05:17.149Z,101996.09
2022-10-17T18:07:46.109Z,101994.91
2022-10-17T18:12:42.860Z,101995.41
2022-10-17T18:18:03.571Z,102018.41
2022-10-17T18:20:30.307Z,102023.78
2022-10-17T18:23:00.539Z,102015.84
2022-10-17T18:25:30.306Z,102031.66
2022-10-17T18:27:56.962Z,102028.47
2022-10-17T18:30:25.932Z,102017.34
2022-10-17T18:32:57.226Z,102015.28
2022-10-17T18:35:24.327Z,102031.25
2022-10-17T18:37:51.394Z,102025.16
2022-10-17T18:40:18.299Z,102029.41
2022-10-17T18:42:50.617Z,102031.06
2022-10-17T18:45:17.755Z,102037.06
2022-10-17T18:47:47.330Z,102033.25
2022-10-17T18:50:21.000Z,102033.66
2022-10-17T18:52:48.723Z,102035.91
2022-10-17T18:55:16.656Z,102052.00
2022-10-17T18:57:43.590Z,102047.59
2022-10-17T19:00:12.006Z,102050.09
2022-10-17T19:02:40.154Z,102044.69
2022-10-17T19:05:13.886Z,102049.19
2022-10-17T19:07:41.471Z,102045.13
2022-10-17T19:10:08.713Z,102043.09
2022-10-17T19:12:36.561Z,102044.34
2022-10-17T19:15:03.764Z,102040.31
2022-10-17T19:17:30.935Z,102048.19
2022-10-17T19:19:58.095Z,102057.31
2022-10-17T19:22:25.199Z,102053.66
2022-10-17T19:24:52.086Z,102059.06
2022-10-17T19:27:20.881Z,102053.28
2022-10-17T19:29:47.730Z,102055.56
2022-10-17T19:32:17.905Z,102060.97
2022-10-17T19:34:47.835Z,102065.31
2022-10-17T19:37:14.819Z,102069.66
2022-10-17T19:39:41.698Z,102056.72
2022-10-17T19:42:08.483Z,102059.38
2022-10-17T19:44:35.627Z,102061.91
2022-10-17T19:47:05.109Z,102061.09
2022-10-17T19:49:31.966Z,102070.84
2022-10-17T19:51:59.246Z,102059.28
2022-10-17T19:54:26.056Z,102060.91
2022-10-17T19:56:55.205Z,102062.84
2022-10-17T20:01:52.572Z,102065.78
2022-10-17T20:04:22.549Z,102060.50
2022-10-17T20:06:49.646Z,102058.31
2022-10-17T20:09:17.349Z,102057.88
2022-10-17T20:11:44.951Z,102058.78
2022-10-17T20:14:12.233Z,102058.44
2022-10-17T20:16:39.074Z,102066.69
2022-10-17T20:19:10.671Z,102071.53
2022-10-17T20:21:39.842Z,102072.75
2022-10-17T20:24:13.395Z,102073.34
2022-10-17T20:26:43.913Z,102077.47
2022-10-17T20:29:16.647Z,102072.50
2022-10-17T20:31:45.519Z,102078.81
2022-10-17T20:34:25.765Z,102079.72
2022-10-17T20:37:04.307Z,102083.78
2022-10-17T20:39:35.863Z,102096.91
2022-10-17T20:42:13.707Z,102093.81
2022-10-17T20:44:48.298Z,102086.47
2022-10-17T20:47:26.478Z,102095.03
2022-10-17T20:50:25.467Z,102100.78
2022-10-17T20:53:01.030Z,102090.34
2022-10-17T20:55:38.474Z,102086.72
2022-10-17T20:58:05.348Z,102092.78
2022-10-17T21:00:32.598Z,102093.63
2022-10-17T21:02:59.576Z,102092.38
2022-10-17T21:05:26.716Z,102083.47
2022-10-17T21:07:53.833Z,102089.50
2022-10-17T21:10:35.332Z,102087.91
2022-10-17T21:13:02.774Z,102102.94
2022-10-17T21:18:12.279Z,102112.91
2022-10-17T21:20:39.724Z,102120.31
2022-10-17T21:23:07.024Z,102126.16
2022-10-17T21:25:36.288Z,102107.59
2022-10-17T21:28:03.769Z,102129.53
2022-10-17T21:30:30.726Z,102119.75
2022-10-17T21:32:58.341Z,102140.81
2022-10-17T21:35:25.388Z,102150.53
2022-10-17T21:37:56.800Z,102143.81
2022-10-17T21:40:23.620Z,102144.41
2022-10-17T21:42:50.534Z,102141.34
2022-10-17T21:45:25.309Z,102138.94
2022-10-17T21:48:11.809Z,102139.50
2022-10-17T21:50:41.480Z,102143.47
2022-10-17T21:53:15.122Z,102138.41
2022-10-17T21:55:45.591Z,102140.78
2022-10-17T21:58:12.466Z,102131.25
2022-10-17T22:00:39.413Z,102145.88
2022-10-17T22:03:07.525Z,102146.47
2022-10-17T22:05:34.373Z,102139.19
2022-10-17T22:08:08.568Z,102134.03
2022-10-17T22:10:39.633Z,102145.78
2022-10-17T22:13:06.751Z,102130.13
2022-10-17T22:15:42.769Z,102141.44
2022-10-17T22:18:09.767Z,102149.16
2022-10-17T22:20:39.567Z,102149.47
2022-10-17T22:23:10.130Z,102155.69
2022-10-17T22:25:55.523Z,102156.97
2022-10-17T22:28:22.889Z,102141.72
2022-10-17T22:30:49.839Z,102159.56
2022-10-17T22:33:16.925Z,102161.84
2022-10-17T22:35:46.692Z,102154.81
2022-10-17T22:38:14.212Z,102144.56
2022-10-17T22:40:44.481Z,102157.53
2022-10-17T22:43:12.655Z,102156.81
2022-10-17T22:45:40.196Z,102150.63
2022-10-17T22:48:07.767Z,102157.53
2022-10-17T22:50:34.848Z,102152.88
2022-10-17T22:53:01.659Z,102159.66
2022-10-17T22:55:28.400Z,102163.41
2022-10-17T22:57:55.262Z,102159.84
2022-10-17T23:00:23.080Z,102165.69
2022-10-17T23:02:53.979Z,102158.38
2022-10-17T23:05:20.780Z,102151.69
2022-10-17T23:07:47.451Z,102152.16
2022-10-17T23:10:14.298Z,102160.41
2022-10-17T23:12:41.319Z,102148.63
2022-10-17T23:15:08.775Z,102148.47
2022-10-17T23:17:35.785Z,102142.19
2022-10-17T23:20:03.503Z,102150.09
2022-10-17T23:22:35.484Z,102141.84
2022-10-17T23:25:02.648Z,102142.19
2022-10-17T23:29:57.228Z,102144.13
2022-10-17T23:32:23.848Z,102139.81
2022-10-17T23:34:50.606Z,102127.22
2022-10-17T23:37:17.542Z,102137.72
2022-10-17T23:39:44.304Z,102134.00
2022-10-17T23:42:11.037Z,102134.16
2022-10-17T23:44:40.554Z,102131.63
2022-10-17T23:47:07.281Z,102130.47
2022-10-17T23:49:34.163Z,102129.78
2022-10-17T23:52:00.876Z,102129.66
2022-10-17T23:54:27.611Z,102120.28
2022-10-17T23:56:54.331Z,102132.41
2022-10-17T23:59:21.106Z,102132.75
